< < Back
Terminal Aerodrome Forecast


Current Version              Previous Versions:   1  2  3  4  5  6  7  8  9  

Terminal Aerodrome Forecast

821
FTUS42 KMLB 281305 AAB
TAFMCO
TAF AMD
KMCO 281305Z 2813/0112 05008KT 6SM -RA BR SCT005 BKN015 OVC030
      TEMPO 2813/2815 3SM SHRA BKN005
     FM281500 05012G19KT P6SM VCSH SCT010 BKN020 OVC030
     FM010100 03010KT P6SM SCT007 BKN015 OVC030=

Latest METAR

603
SAUS70 KWBC 281400 RRR
MTRMCO
METAR KMCO 281353Z 06012KT 10SM OVC008 19/18 A3032 RMK AO2 RAE51 SLP268
P0002 T01890183


USA.gov is the U.S. government's official web portal to all federal, state and local government web resources and services.